createdAt,value
2018-03-01T00:01:31.947Z,25.85
2018-03-01T00:03:58.714Z,19.80
2018-03-01T00:06:25.524Z,18.90
2018-03-01T00:08:52.307Z,18.92
2018-03-01T00:11:19.080Z,20.25
2018-03-01T00:13:45.862Z,20.58
2018-03-01T00:16:12.630Z,21.35
2018-03-01T00:18:39.498Z,21.70
2018-03-01T00:21:06.388Z,18.98
2018-03-01T00:23:33.188Z,24.20
2018-03-01T00:26:00.015Z,20.65
2018-03-01T00:28:26.903Z,17.02
2018-03-01T00:30:53.675Z,17.85
2018-03-01T00:33:20.473Z,15.32
2018-03-01T00:35:47.347Z,16.48
2018-03-01T00:38:14.144Z,19.55
2018-03-01T00:40:40.949Z,15.07
2018-03-01T00:43:07.700Z,20.77
2018-03-01T00:45:34.476Z,19.12
2018-03-01T00:48:01.618Z,21.52
2018-03-01T00:50:28.467Z,21.98
2018-03-01T00:52:55.274Z,23.05
2018-03-01T00:55:22.075Z,27.55
2018-03-01T00:57:48.889Z,19.77
2018-03-01T01:00:15.651Z,20.75
2018-03-01T01:02:42.462Z,19.23
2018-03-01T01:05:09.310Z,18.05
2018-03-01T01:07:36.119Z,18.42
2018-03-01T01:10:03.099Z,18.25
2018-03-01T01:12:29.909Z,16.40
2018-03-01T01:14:56.730Z,16.98
2018-03-01T01:17:23.527Z,15.95
2018-03-01T01:19:50.356Z,16.20
2018-03-01T01:22:17.164Z,17.17
2018-03-01T01:24:43.936Z,16.83
2018-03-01T01:27:10.746Z,17.35
2018-03-01T01:29:37.947Z,15.23
2018-03-01T01:32:05.110Z,15.05
2018-03-01T01:34:31.906Z,15.85
2018-03-01T01:36:58.672Z,16.77
2018-03-01T01:39:25.496Z,13.80
2018-03-01T01:41:52.338Z,12.55
2018-03-01T01:44:19.100Z,13.60
2018-03-01T01:46:45.904Z,14.95
2018-03-01T01:49:12.706Z,16.42
2018-03-01T01:51:39.458Z,16.58
2018-03-01T01:54:06.250Z,13.20
2018-03-01T01:56:33.011Z,14.63
2018-03-01T01:58:59.790Z,13.15
2018-03-01T02:01:26.554Z,13.40
2018-03-01T02:03:53.316Z,12.60
2018-03-01T02:06:20.114Z,16.90
2018-03-01T02:08:46.870Z,16.58
2018-03-01T02:11:13.768Z,15.38
2018-03-01T02:13:40.749Z,14.75
2018-03-01T02:16:07.538Z,14.52
2018-03-01T02:18:34.297Z,15.25
2018-03-01T02:21:01.114Z,14.77
2018-03-01T02:23:27.897Z,16.20
2018-03-01T02:25:54.731Z,17.40
2018-03-01T02:28:21.527Z,14.20
2018-03-01T02:30:48.509Z,12.25
2018-03-01T02:33:15.286Z,14.80
2018-03-01T02:35:42.054Z,16.73
2018-03-01T02:38:08.847Z,14.30
2018-03-01T02:40:35.667Z,18.08
2018-03-01T02:43:02.439Z,17.42
2018-03-01T02:45:29.206Z,15.13
2018-03-01T02:47:55.978Z,16.67
2018-03-01T02:50:22.871Z,16.05
2018-03-01T02:52:49.632Z,15.02
2018-03-01T02:55:16.398Z,16.17
2018-03-01T02:57:43.190Z,14.20
2018-03-01T03:00:09.948Z,15.52
2018-03-01T03:02:36.708Z,14.10
2018-03-01T03:05:03.586Z,17.25
2018-03-01T03:07:30.412Z,15.82
2018-03-01T03:09:57.174Z,16.33
2018-03-01T03:12:23.974Z,16.77
2018-03-01T03:14:50.755Z,16.02
2018-03-01T03:17:17.514Z,18.08
2018-03-01T03:19:44.259Z,19.05
2018-03-01T03:22:11.168Z,18.92
2018-03-01T03:24:37.953Z,20.23
2018-03-01T03:27:04.703Z,17.45
2018-03-01T03:29:31.480Z,13.98
2018-03-01T03:31:58.247Z,16.90
2018-03-01T03:34:25.286Z,16.35
2018-03-01T03:36:52.083Z,15.52
2018-03-01T03:39:18.918Z,17.67
2018-03-01T03:41:45.684Z,15.95
2018-03-01T03:44:12.781Z,14.75
2018-03-01T03:46:39.551Z,14.50
2018-03-01T03:49:06.301Z,14.63
2018-03-01T03:51:33.074Z,16.55
2018-03-01T03:54:00.015Z,12.00
2018-03-01T03:56:26.921Z,11.70
2018-03-01T03:58:53.701Z,17.05
2018-03-01T04:01:20.510Z,14.05
2018-03-01T04:03:47.283Z,13.90
2018-03-01T04:06:14.032Z,33.85
2018-03-01T04:08:40.837Z,75.22
2018-03-01T04:11:07.620Z,29.33
2018-03-01T04:13:34.362Z,22.15
2018-03-01T04:16:01.388Z,15.88
2018-03-01T04:18:28.211Z,15.00
2018-03-01T04:20:54.965Z,18.98
2018-03-01T04:23:21.738Z,19.23
2018-03-01T04:25:48.623Z,15.35
2018-03-01T04:28:15.468Z,34.78
2018-03-01T04:30:42.241Z,18.48
2018-03-01T04:33:09.131Z,45.40
2018-03-01T04:35:36.574Z,19.10
2018-03-01T04:38:03.341Z,19.33
2018-03-01T04:40:30.111Z,21.27
2018-03-01T04:42:56.902Z,20.55
2018-03-01T04:45:23.692Z,26.77
2018-03-01T04:47:50.482Z,19.27
2018-03-01T04:50:17.267Z,17.12
2018-03-01T04:52:44.060Z,16.25
2018-03-01T04:55:10.874Z,18.95
2018-03-01T04:57:37.654Z,19.55
2018-03-01T05:00:04.526Z,18.48
2018-03-01T05:02:31.338Z,17.15
2018-03-01T05:04:58.087Z,14.77
2018-03-01T05:07:24.891Z,16.75
2018-03-01T05:09:51.718Z,15.82
2018-03-01T05:12:18.489Z,13.60
2018-03-01T05:14:45.295Z,13.90
2018-03-01T05:17:12.074Z,14.43
2018-03-01T05:19:38.852Z,17.15
2018-03-01T05:22:05.625Z,17.65
2018-03-01T05:24:32.442Z,17.00
2018-03-01T05:26:59.244Z,16.77
2018-03-01T05:29:26.022Z,15.98
2018-03-01T05:31:52.802Z,15.32
2018-03-01T05:34:19.591Z,18.52
2018-03-01T05:36:46.438Z,18.25
2018-03-01T05:39:13.255Z,15.38
2018-03-01T05:41:40.069Z,17.65
2018-03-01T05:44:06.839Z,19.20
2018-03-01T05:46:33.730Z,18.92
2018-03-01T05:49:00.536Z,20.80
2018-03-01T05:51:27.372Z,17.48
2018-03-01T05:53:54.202Z,16.52
2018-03-01T05:56:20.990Z,17.83
2018-03-01T05:58:47.770Z,20.70
2018-03-01T06:01:14.549Z,23.00
2018-03-01T06:03:41.368Z,13.32
2018-03-01T06:06:08.163Z,18.12
2018-03-01T06:08:35.068Z,15.73
2018-03-01T06:11:02.199Z,17.83
2018-03-01T06:13:29.033Z,20.62
2018-03-01T06:15:55.867Z,22.20
2018-03-01T06:18:22.650Z,27.08
2018-03-01T06:20:49.439Z,44.13
2018-03-01T06:23:16.231Z,31.77
2018-03-01T06:25:42.960Z,28.83
2018-03-01T06:28:09.731Z,31.40
2018-03-01T06:30:36.547Z,19.83
2018-03-01T06:33:03.342Z,23.40
2018-03-01T06:35:30.126Z,19.60
2018-03-01T06:37:56.914Z,21.67
2018-03-01T06:40:23.759Z,23.60
2018-03-01T06:42:50.550Z,19.30
2018-03-01T06:45:17.350Z,18.60
2018-03-01T06:47:44.139Z,20.33
2018-03-01T06:50:10.947Z,22.48
2018-03-01T06:52:37.807Z,21.98
2018-03-01T06:55:05.622Z,20.55
2018-03-01T06:57:32.400Z,21.52
2018-03-01T06:59:59.175Z,24.05
2018-03-01T07:02:26.111Z,21.83
2018-03-01T07:04:52.906Z,19.05
2018-03-01T07:07:19.687Z,22.35
2018-03-01T07:09:46.487Z,21.10
2018-03-01T07:12:13.270Z,19.95
2018-03-01T07:14:40.064Z,21.85
2018-03-01T07:17:06.839Z,21.23
2018-03-01T07:19:33.612Z,24.02
2018-03-01T07:22:00.414Z,20.83
2018-03-01T07:24:27.290Z,16.27
2018-03-01T07:26:54.179Z,29.10
2018-03-01T07:29:21.077Z,24.63
2018-03-01T07:31:47.866Z,23.60
2018-03-01T07:34:14.636Z,20.62
2018-03-01T07:36:41.411Z,19.60
2018-03-01T07:39:08.206Z,17.30
2018-03-01T07:41:35.168Z,18.45
2018-03-01T07:44:01.987Z,20.98
2018-03-01T07:46:28.773Z,22.52
2018-03-01T07:48:55.907Z,28.65
2018-03-01T07:51:22.685Z,21.77
2018-03-01T07:53:49.432Z,21.02
2018-03-01T07:56:16.274Z,24.58
2018-03-01T07:58:43.045Z,32.88
2018-03-01T08:01:09.895Z,24.85
2018-03-01T08:03:36.759Z,25.92
2018-03-01T08:06:03.625Z,23.83
2018-03-01T08:08:30.405Z,22.95
2018-03-01T08:10:57.224Z,25.60
2018-03-01T08:13:25.005Z,26.83
2018-03-01T08:15:51.845Z,20.15
2018-03-01T08:18:18.651Z,22.50
2018-03-01T08:20:45.470Z,20.52
2018-03-01T08:23:12.406Z,20.50
2018-03-01T08:25:39.196Z,23.45
2018-03-01T08:28:05.999Z,19.65
2018-03-01T08:30:32.848Z,18.70
2018-03-01T08:32:59.675Z,21.90
2018-03-01T08:35:27.326Z,22.83
2018-03-01T08:37:54.171Z,18.95
2018-03-01T08:40:21.024Z,18.60
2018-03-01T08:42:47.902Z,26.15
2018-03-01T08:45:14.678Z,25.15
2018-03-01T08:47:41.482Z,20.02
2018-03-01T08:50:08.320Z,20.80
2018-03-01T08:52:35.239Z,19.00
2018-03-01T08:55:02.148Z,18.25
2018-03-01T08:57:28.962Z,18.45
2018-03-01T08:59:55.765Z,17.92
2018-03-01T09:02:22.819Z,16.85
2018-03-01T09:04:49.782Z,15.70
2018-03-01T09:07:16.641Z,15.52
2018-03-01T09:09:43.466Z,16.77
2018-03-01T09:12:10.410Z,14.33
2018-03-01T09:14:37.249Z,17.60
2018-03-01T09:17:04.063Z,12.87
2018-03-01T09:19:34.067Z,14.93
2018-03-01T09:22:02.390Z,14.93
2018-03-01T09:24:30.164Z,17.40
2018-03-01T09:26:57.106Z,19.83
2018-03-01T09:29:23.974Z,15.83
2018-03-01T09:31:50.787Z,15.63
2018-03-01T09:34:17.625Z,17.30
2018-03-01T09:36:44.465Z,17.23
2018-03-01T09:39:11.270Z,13.97
2018-03-01T09:41:38.129Z,14.17
2018-03-01T09:44:04.908Z,14.57
2018-03-01T09:46:31.751Z,13.67
2018-03-01T09:48:58.586Z,15.80
2018-03-01T09:51:25.420Z,14.37
2018-03-01T09:53:52.226Z,14.03
2018-03-01T09:56:19.063Z,16.07
2018-03-01T09:58:46.087Z,15.40
2018-03-01T10:01:12.907Z,16.63
2018-03-01T10:03:39.805Z,14.27
2018-03-01T10:06:06.673Z,16.20
2018-03-01T10:08:33.541Z,14.57
2018-03-01T10:11:00.485Z,14.63
2018-03-01T10:13:27.273Z,14.67
2018-03-01T10:15:54.103Z,14.83
2018-03-01T10:18:20.947Z,15.17
2018-03-01T10:20:47.758Z,14.10
2018-03-01T10:23:15.461Z,19.97
2018-03-01T10:25:42.344Z,16.43
2018-03-01T10:28:09.226Z,15.93
2018-03-01T10:30:36.079Z,19.37
2018-03-01T10:33:02.893Z,20.17
2018-03-01T10:35:29.750Z,14.57
2018-03-01T10:37:56.579Z,16.27
2018-03-01T10:40:23.583Z,17.93
2018-03-01T10:42:51.216Z,18.53
2018-03-01T10:45:18.128Z,12.43
2018-03-01T10:47:44.947Z,14.23
2018-03-01T10:50:11.963Z,13.87
2018-03-01T10:52:38.908Z,13.23
2018-03-01T10:55:05.798Z,11.90
2018-03-01T10:57:32.671Z,21.60
2018-03-01T10:59:59.504Z,19.50
2018-03-01T11:02:40.868Z,19.70
2018-03-01T11:05:07.707Z,15.10
2018-03-01T11:07:34.539Z,17.90
2018-03-01T11:10:01.359Z,19.70
2018-03-01T11:12:28.242Z,14.63
2018-03-01T11:14:55.729Z,14.43
2018-03-01T11:17:22.881Z,13.70
2018-03-01T11:19:53.579Z,17.03
2018-03-01T11:57:41.968Z,13.87
2018-03-01T12:00:18.439Z,13.73
2018-03-01T12:03:36.804Z,19.40
2018-03-01T12:06:10.085Z,18.20
2018-03-01T12:08:43.784Z,12.87
2018-03-01T12:11:17.997Z,14.00
2018-03-01T12:13:49.664Z,13.80
2018-03-01T12:19:24.895Z,15.60
2018-03-01T12:41:14.422Z,20.90
2018-03-01T12:46:39.737Z,13.50
2018-03-01T12:54:34.977Z,11.73
2018-03-01T12:57:02.115Z,11.87
2018-03-01T12:59:33.609Z,11.70
2018-03-01T13:02:04.809Z,11.70
2018-03-01T13:04:45.623Z,13.07
2018-03-01T13:07:21.658Z,11.23
2018-03-01T13:09:52.872Z,12.67
2018-03-01T13:12:23.556Z,10.50
2018-03-01T13:14:53.529Z,12.03
2018-03-01T13:17:26.347Z,10.73
2018-03-01T13:20:02.985Z,11.13
2018-03-01T13:25:10.397Z,10.33
2018-03-01T13:27:42.052Z,12.47
2018-03-01T13:30:21.797Z,11.20
2018-03-01T13:32:55.609Z,10.07
2018-03-01T13:35:26.989Z,10.67
2018-03-01T13:37:54.935Z,10.10
2018-03-01T13:40:24.657Z,9.30
2018-03-01T13:42:55.302Z,10.33
2018-03-01T13:45:24.311Z,10.53
2018-03-01T13:47:52.857Z,10.73
2018-03-01T13:50:21.574Z,10.47
2018-03-01T13:52:53.393Z,9.90
2018-03-01T13:55:23.877Z,9.60
2018-03-01T13:57:54.080Z,11.30
2018-03-01T14:00:24.702Z,12.50
2018-03-01T14:02:55.588Z,10.90
2018-03-01T14:05:27.287Z,12.33
2018-03-01T14:07:58.934Z,10.63
2018-03-01T14:10:27.994Z,11.60
2018-03-01T14:13:07.841Z,13.43
2018-03-01T14:15:40.008Z,13.80
2018-03-01T14:18:12.706Z,17.27
2018-03-01T14:20:59.541Z,10.53
2018-03-01T14:23:34.370Z,9.83
2018-03-01T14:26:09.263Z,16.20
2018-03-01T14:28:37.547Z,10.53
2018-03-01T14:31:06.748Z,9.80
2018-03-01T14:33:49.520Z,12.77
2018-03-01T14:36:18.175Z,12.47
2018-03-01T14:38:49.186Z,12.87
2018-03-01T14:41:18.742Z,11.13
2018-03-01T14:43:48.613Z,11.77
2018-03-01T14:46:22.647Z,12.50
2018-03-01T14:48:53.148Z,14.87
2018-03-01T14:51:22.902Z,14.37
2018-03-01T14:53:55.650Z,15.70
2018-03-01T14:56:27.299Z,14.17
2018-03-01T14:58:58.840Z,11.70
2018-03-01T15:01:30.824Z,12.93
2018-03-01T15:04:04.280Z,10.40
2018-03-01T15:06:39.569Z,10.50
2018-03-01T15:09:12.837Z,10.07
2018-03-01T15:11:46.174Z,10.10
2018-03-01T15:14:20.292Z,8.37
2018-03-01T15:16:48.333Z,10.90
2018-03-01T15:19:21.955Z,10.40
2018-03-01T15:21:54.573Z,10.60
2018-03-01T15:24:22.716Z,10.47
2018-03-01T15:26:50.248Z,8.77
2018-03-01T15:29:21.061Z,9.30
2018-03-01T15:31:49.411Z,11.00
2018-03-01T15:34:16.200Z,10.43
2018-03-01T15:36:43.028Z,11.50
2018-03-01T15:39:10.077Z,9.60
2018-03-01T15:41:36.871Z,9.50
2018-03-01T15:44:03.911Z,10.30
2018-03-01T15:46:30.726Z,9.73
2018-03-01T15:48:57.855Z,10.37
2018-03-01T15:51:25.017Z,10.60
2018-03-01T15:53:51.822Z,12.67
2018-03-01T15:56:18.720Z,8.77
2018-03-01T15:58:45.563Z,13.33
2018-03-01T16:01:12.427Z,11.13
2018-03-01T16:03:39.303Z,10.77
2018-03-01T16:06:06.043Z,9.80
2018-03-01T16:08:32.867Z,10.57
2018-03-01T16:10:59.658Z,8.17
2018-03-01T16:13:26.504Z,11.30
2018-03-01T16:15:53.320Z,15.10
2018-03-01T16:18:20.290Z,15.10
2018-03-01T16:20:47.119Z,13.13
2018-03-01T16:23:13.917Z,13.20
2018-03-01T16:25:40.781Z,11.37
2018-03-01T16:28:07.602Z,11.90
2018-03-01T16:30:34.559Z,13.00
2018-03-01T16:33:01.399Z,15.77
2018-03-01T16:35:28.224Z,13.20
2018-03-01T16:38:00.064Z,12.10
2018-03-01T16:40:28.933Z,13.33
2018-03-01T16:42:56.573Z,13.27
2018-03-01T16:45:27.505Z,12.37
2018-03-01T16:47:54.309Z,12.77
2018-03-01T16:50:21.160Z,14.93
2018-03-01T16:52:47.971Z,18.30
2018-03-01T16:55:19.308Z,14.98
2018-03-01T16:57:46.078Z,16.00
2018-03-01T17:00:12.936Z,13.95
2018-03-01T17:02:39.774Z,25.92
2018-03-01T17:05:06.582Z,17.67
2018-03-01T17:07:33.415Z,16.52
2018-03-01T17:10:00.268Z,16.40
2018-03-01T17:12:27.072Z,18.27
2018-03-01T17:14:53.884Z,19.05
2018-03-01T17:17:21.091Z,15.18
2018-03-01T17:19:48.165Z,19.02
2018-03-01T17:22:14.970Z,19.87
2018-03-01T17:24:41.767Z,19.35
2018-03-01T17:27:08.571Z,23.10
2018-03-01T17:29:35.354Z,20.50
2018-03-01T17:32:02.156Z,23.30
2018-03-01T17:34:28.982Z,22.70
2018-03-01T17:36:55.804Z,20.77
2018-03-01T17:39:22.705Z,16.83
2018-03-01T17:41:49.596Z,20.98
2018-03-01T17:44:16.432Z,20.10
2018-03-01T17:46:43.744Z,18.27
2018-03-01T17:49:10.500Z,17.67
2018-03-01T17:51:37.311Z,32.17
2018-03-01T17:54:04.390Z,21.20
2018-03-01T17:56:31.231Z,21.70
2018-03-01T17:58:58.191Z,20.10
2018-03-01T18:01:25.101Z,20.60
2018-03-01T18:03:51.896Z,20.12
2018-03-01T18:06:18.727Z,18.42
2018-03-01T18:08:46.356Z,17.52
2018-03-01T18:11:13.239Z,17.95
2018-03-01T18:13:40.125Z,15.02
2018-03-01T18:16:06.929Z,18.50
2018-03-01T18:18:34.234Z,17.17
2018-03-01T18:21:01.068Z,18.10
2018-03-01T18:23:27.878Z,17.42
2018-03-01T18:25:54.716Z,15.70
2018-03-01T18:28:21.562Z,15.85
2018-03-01T18:30:49.317Z,18.23
2018-03-01T18:33:16.111Z,16.25
2018-03-01T18:35:42.920Z,20.02
2018-03-01T18:38:09.709Z,21.60
2018-03-01T18:40:36.682Z,20.35
2018-03-01T18:43:03.704Z,19.35
2018-03-01T18:45:30.485Z,20.00
2018-03-01T18:47:57.255Z,20.62
2018-03-01T18:50:24.411Z,24.35
2018-03-01T18:52:51.239Z,24.92
2018-03-01T18:55:18.030Z,21.77
2018-03-01T18:57:44.811Z,22.50
2018-03-01T19:00:11.642Z,22.27
2018-03-01T19:02:38.532Z,25.45
2018-03-01T19:05:05.610Z,22.05
2018-03-01T19:07:32.418Z,19.08
2018-03-01T19:09:59.239Z,23.08
2018-03-01T19:12:26.094Z,23.08
2018-03-01T19:14:52.893Z,21.40
2018-03-01T19:17:19.664Z,23.50
2018-03-01T19:19:46.489Z,21.75
2018-03-01T19:22:13.329Z,20.15
2018-03-01T19:24:40.098Z,21.12
2018-03-01T19:27:06.871Z,21.75
2018-03-01T19:29:34.622Z,19.12
2018-03-01T19:32:01.508Z,18.50
2018-03-01T19:34:28.269Z,19.42
2018-03-01T19:36:55.045Z,18.48
2018-03-01T19:39:21.820Z,17.83
2018-03-01T19:41:48.644Z,19.58
2018-03-01T19:44:15.657Z,20.35
2018-03-01T19:46:42.598Z,20.48
2018-03-01T19:49:09.473Z,18.30
2018-03-01T19:51:36.268Z,18.45
2018-03-01T19:54:03.080Z,15.82
2018-03-01T19:56:29.897Z,18.10
2018-03-01T19:58:56.662Z,18.60
2018-03-01T20:01:23.463Z,18.33
2018-03-01T20:03:50.244Z,15.32
2018-03-01T20:06:17.722Z,18.60
2018-03-01T20:08:44.534Z,16.58
2018-03-01T20:11:11.313Z,17.42
2018-03-01T20:13:38.080Z,17.90
2018-03-01T20:16:04.891Z,15.30
2018-03-01T20:18:31.703Z,17.55
2018-03-01T20:20:58.531Z,16.30
2018-03-01T20:23:25.310Z,19.55
2018-03-01T20:25:52.102Z,20.15
2018-03-01T20:28:18.906Z,17.17
2018-03-01T20:30:45.735Z,20.40
2018-03-01T20:33:12.558Z,25.55
2018-03-01T20:35:39.382Z,20.08
2018-03-01T20:38:06.140Z,31.20
2018-03-01T20:40:32.975Z,18.00
2018-03-01T20:42:59.745Z,36.95
2018-03-01T20:45:26.573Z,21.30
2018-03-01T20:47:53.381Z,19.70
2018-03-01T20:50:20.154Z,17.23
2018-03-01T20:52:47.056Z,17.62
2018-03-01T20:55:13.867Z,16.62
2018-03-01T20:57:40.647Z,17.95
2018-03-01T21:00:07.455Z,33.00
2018-03-01T21:02:34.250Z,22.35
2018-03-01T21:05:01.060Z,30.17
2018-03-01T21:07:27.880Z,44.20
2018-03-01T21:09:55.197Z,32.47
2018-03-01T21:12:22.574Z,17.37
2018-03-01T21:14:49.446Z,17.60
2018-03-01T21:17:17.167Z,17.92
2018-03-01T21:19:46.808Z,16.67
2018-03-01T21:22:13.625Z,16.25
2018-03-01T21:24:40.398Z,18.45
2018-03-01T21:27:07.199Z,16.92
2018-03-01T21:29:34.184Z,19.73
2018-03-01T21:32:00.983Z,34.42
2018-03-01T21:34:29.355Z,36.63
2018-03-01T21:36:56.151Z,21.77
2018-03-01T21:39:22.899Z,23.38
2018-03-01T21:44:35.115Z,18.52
2018-03-01T21:47:06.881Z,21.42
2018-03-01T21:49:33.645Z,17.73
2018-03-01T21:52:00.443Z,20.15
2018-03-01T21:54:27.254Z,24.05
2018-03-01T21:56:54.582Z,26.35
2018-03-01T21:59:21.499Z,50.58
2018-03-01T22:01:48.389Z,81.53
2018-03-01T22:04:15.218Z,27.45
2018-03-01T22:06:51.502Z,43.67
2018-03-01T22:09:18.507Z,30.90
2018-03-01T22:11:45.316Z,29.55
2018-03-01T22:14:13.089Z,31.05
2018-03-01T22:16:50.760Z,26.27
2018-03-01T22:19:17.692Z,53.78
2018-03-01T22:21:44.483Z,68.87
2018-03-01T22:24:11.275Z,48.92
2018-03-01T22:26:38.920Z,53.75
2018-03-01T22:29:05.774Z,31.23
2018-03-01T22:31:32.586Z,26.00
2018-03-01T22:33:59.609Z,24.33
2018-03-01T22:36:26.426Z,20.75
2018-03-01T22:38:53.236Z,19.75
2018-03-01T22:41:20.003Z,23.65
2018-03-01T22:43:46.792Z,24.60
2018-03-01T22:46:13.564Z,39.58
2018-03-01T22:48:40.326Z,56.72
2018-03-01T22:51:07.997Z,31.92
2018-03-01T22:53:34.763Z,70.72
2018-03-01T22:56:01.620Z,33.83
2018-03-01T22:58:28.426Z,31.60
2018-03-01T23:00:55.302Z,27.13
2018-03-01T23:03:22.682Z,29.70
2018-03-01T23:05:49.451Z,24.00
2018-03-01T23:08:16.263Z,23.83
2018-03-01T23:10:43.051Z,24.63
2018-03-01T23:13:09.855Z,24.33
2018-03-01T23:15:36.911Z,36.60
2018-03-01T23:18:03.670Z,21.40
2018-03-01T23:20:30.456Z,22.65
2018-03-01T23:22:57.221Z,35.78
2018-03-01T23:25:24.071Z,30.77
2018-03-01T23:27:50.911Z,28.92
2018-03-01T23:30:17.717Z,24.63
2018-03-01T23:32:44.567Z,26.37
2018-03-01T23:35:11.410Z,27.48
2018-03-01T23:37:39.183Z,24.30
2018-03-01T23:40:05.962Z,25.15
2018-03-01T23:42:32.775Z,31.73
2018-03-01T23:44:59.538Z,26.05
2018-03-01T23:47:26.330Z,28.23
2018-03-01T23:49:53.219Z,31.30
2018-03-01T23:52:20.004Z,32.58
2018-03-01T23:54:46.752Z,29.67
2018-03-01T23:57:13.509Z,30.75
2018-03-01T23:59:40.280Z,21.95
